sensor_id;sensor_type;location;lat;lon;timestamp;pressure;altitude;pressure_sealevel;temperature
48894;BMP280;34710;35.798;139.446;2023-05-10T00:01:18;100516.36;;;23.55
48894;BMP280;34710;35.798;139.446;2023-05-10T00:03:44;100513.55;;;23.39
48894;BMP280;34710;35.798;139.446;2023-05-10T00:06:10;100515.31;;;23.27
48894;BMP280;34710;35.798;139.446;2023-05-10T00:08:35;100515.72;;;22.61
48894;BMP280;34710;35.798;139.446;2023-05-10T00:11:00;100511.16;;;24.02
48894;BMP280;34710;35.798;139.446;2023-05-10T00:13:25;100505.27;;;23.89
48894;BMP280;34710;35.798;139.446;2023-05-10T00:15:51;100510.78;;;23.56
48894;BMP280;34710;35.798;139.446;2023-05-10T00:18:16;100514.76;;;23.40
48894;BMP280;34710;35.798;139.446;2023-05-10T00:20:41;100511.09;;;23.36
48894;BMP280;34710;35.798;139.446;2023-05-10T00:23:06;100510.02;;;21.83
48894;BMP280;34710;35.798;139.446;2023-05-10T00:25:31;100510.05;;;22.82
48894;BMP280;34710;35.798;139.446;2023-05-10T00:27:57;100503.80;;;23.87
48894;BMP280;34710;35.798;139.446;2023-05-10T00:30:23;100499.71;;;24.45
48894;BMP280;34710;35.798;139.446;2023-05-10T00:32:49;100499.37;;;24.95
48894;BMP280;34710;35.798;139.446;2023-05-10T00:35:14;100497.30;;;25.35
48894;BMP280;34710;35.798;139.446;2023-05-10T00:37:39;100495.12;;;24.18
48894;BMP280;34710;35.798;139.446;2023-05-10T00:40:06;100493.84;;;24.41
48894;BMP280;34710;35.798;139.446;2023-05-10T00:42:30;100492.66;;;25.11
48894;BMP280;34710;35.798;139.446;2023-05-10T00:44:55;100491.17;;;25.67
48894;BMP280;34710;35.798;139.446;2023-05-10T00:47:20;100487.24;;;25.92
48894;BMP280;34710;35.798;139.446;2023-05-10T00:49:47;100482.32;;;24.46
48894;BMP280;34710;35.798;139.446;2023-05-10T00:52:12;100478.25;;;24.31
48894;BMP280;34710;35.798;139.446;2023-05-10T00:54:37;100475.00;;;25.61
48894;BMP280;34710;35.798;139.446;2023-05-10T00:57:02;100478.36;;;25.91
48894;BMP280;34710;35.798;139.446;2023-05-10T00:59:27;100476.44;;;26.29
48894;BMP280;34710;35.798;139.446;2023-05-10T01:01:54;100473.97;;;25.19
48894;BMP280;34710;35.798;139.446;2023-05-10T01:04:19;100473.80;;;26.54
48894;BMP280;34710;35.798;139.446;2023-05-10T01:06:45;100473.74;;;26.95
48894;BMP280;34710;35.798;139.446;2023-05-10T01:09:10;100474.46;;;26.58
48894;BMP280;34710;35.798;139.446;2023-05-10T01:11:35;100470.55;;;26.81
48894;BMP280;34710;35.798;139.446;2023-05-10T01:14:01;100466.00;;;26.71
48894;BMP280;34710;35.798;139.446;2023-05-10T01:16:27;100462.69;;;27.13
48894;BMP280;34710;35.798;139.446;2023-05-10T01:18:52;100455.92;;;26.95
48894;BMP280;34710;35.798;139.446;2023-05-10T01:21:27;100454.89;;;25.63
48894;BMP280;34710;35.798;139.446;2023-05-10T01:31:11;100449.77;;;27.12
48894;BMP280;34710;35.798;139.446;2023-05-10T01:33:26;100439.46;;;28.26
48894;BMP280;34710;35.798;139.446;2023-05-10T01:35:55;100439.10;;;27.91
48894;BMP280;34710;35.798;139.446;2023-05-10T01:38:18;100433.45;;;28.51
48894;BMP280;34710;35.798;139.446;2023-05-10T01:40:47;100430.18;;;27.89
48894;BMP280;34710;35.798;139.446;2023-05-10T01:43:14;100429.19;;;28.08
48894;BMP280;34710;35.798;139.446;2023-05-10T01:45:36;100420.32;;;28.80
48894;BMP280;34710;35.798;139.446;2023-05-10T01:48:05;100423.82;;;28.84
48894;BMP280;34710;35.798;139.446;2023-05-10T01:50:27;100423.88;;;28.99
48894;BMP280;34710;35.798;139.446;2023-05-10T01:52:52;100421.68;;;28.47
48894;BMP280;34710;35.798;139.446;2023-05-10T01:55:16;100417.22;;;29.61
48894;BMP280;34710;35.798;139.446;2023-05-10T01:57:39;100412.86;;;29.13
48894;BMP280;34710;35.798;139.446;2023-05-10T02:00:04;100408.33;;;28.97
48894;BMP280;34710;35.798;139.446;2023-05-10T02:02:30;100405.86;;;28.07
48894;BMP280;34710;35.798;139.446;2023-05-10T02:04:54;100403.28;;;27.01
48894;BMP280;34710;35.798;139.446;2023-05-10T02:07:19;100402.72;;;28.18
48894;BMP280;34710;35.798;139.446;2023-05-10T02:09:46;100395.24;;;29.27
48894;BMP280;34710;35.798;139.446;2023-05-10T02:12:10;100390.57;;;28.52
48894;BMP280;34710;35.798;139.446;2023-05-10T02:14:37;100389.61;;;28.98
48894;BMP280;34710;35.798;139.446;2023-05-10T02:17:03;100388.87;;;28.94
48894;BMP280;34710;35.798;139.446;2023-05-10T02:19:27;100388.00;;;28.25
48894;BMP280;34710;35.798;139.446;2023-05-10T02:21:52;100385.50;;;28.22
48894;BMP280;34710;35.798;139.446;2023-05-10T02:24:18;100383.83;;;28.27
48894;BMP280;34710;35.798;139.446;2023-05-10T02:26:45;100379.74;;;28.37
48894;BMP280;34710;35.798;139.446;2023-05-10T02:29:09;100375.17;;;26.87
48894;BMP280;34710;35.798;139.446;2023-05-10T02:31:34;100376.94;;;24.97
48894;BMP280;34710;35.798;139.446;2023-05-10T02:34:00;100371.13;;;27.40
48894;BMP280;34710;35.798;139.446;2023-05-10T02:36:24;100373.02;;;26.79
48894;BMP280;34710;35.798;139.446;2023-05-10T02:38:50;100367.72;;;26.73
48894;BMP280;34710;35.798;139.446;2023-05-10T02:41:15;100364.66;;;27.16
48894;BMP280;34710;35.798;139.446;2023-05-10T02:43:41;100360.02;;;28.88
48894;BMP280;34710;35.798;139.446;2023-05-10T02:46:05;100353.21;;;29.16
48894;BMP280;34710;35.798;139.446;2023-05-10T02:48:30;100352.71;;;28.90
48894;BMP280;34710;35.798;139.446;2023-05-10T02:50:59;100346.30;;;30.59
48894;BMP280;34710;35.798;139.446;2023-05-10T02:53:31;100339.93;;;29.11
48894;BMP280;34710;35.798;139.446;2023-05-10T02:55:51;100335.05;;;28.61
48894;BMP280;34710;35.798;139.446;2023-05-10T02:58:12;100335.75;;;30.26
48894;BMP280;34710;35.798;139.446;2023-05-10T03:00:37;100328.81;;;30.16
48894;BMP280;34710;35.798;139.446;2023-05-10T03:03:03;100325.74;;;27.39
48894;BMP280;34710;35.798;139.446;2023-05-10T03:05:28;100322.48;;;28.26
48894;BMP280;34710;35.798;139.446;2023-05-10T03:07:54;100317.48;;;26.54
48894;BMP280;34710;35.798;139.446;2023-05-10T03:10:19;100311.73;;;26.70
48894;BMP280;34710;35.798;139.446;2023-05-10T03:12:58;100300.92;;;28.17
48894;BMP280;34710;35.798;139.446;2023-05-10T03:15:19;100298.42;;;29.08
48894;BMP280;34710;35.798;139.446;2023-05-10T03:17:43;100302.47;;;29.85
48894;BMP280;34710;35.798;139.446;2023-05-10T03:20:06;100293.08;;;30.72
48894;BMP280;34710;35.798;139.446;2023-05-10T03:22:29;100289.35;;;27.67
48894;BMP280;34710;35.798;139.446;2023-05-10T03:24:53;100280.10;;;29.32
48894;BMP280;34710;35.798;139.446;2023-05-10T03:27:18;100275.86;;;28.89
48894;BMP280;34710;35.798;139.446;2023-05-10T03:29:43;100277.27;;;30.83
48894;BMP280;34710;35.798;139.446;2023-05-10T03:32:08;100276.30;;;30.81
48894;BMP280;34710;35.798;139.446;2023-05-10T03:34:34;100271.34;;;29.66
48894;BMP280;34710;35.798;139.446;2023-05-10T03:36:59;100266.99;;;28.18
48894;BMP280;34710;35.798;139.446;2023-05-10T03:39:24;100267.56;;;29.51
48894;BMP280;34710;35.798;139.446;2023-05-10T03:41:49;100264.87;;;28.71
48894;BMP280;34710;35.798;139.446;2023-05-10T03:44:15;100264.05;;;29.95
48894;BMP280;34710;35.798;139.446;2023-05-10T03:46:40;100262.85;;;29.94
48894;BMP280;34710;35.798;139.446;2023-05-10T03:49:06;100260.36;;;29.59
48894;BMP280;34710;35.798;139.446;2023-05-10T03:51:31;100257.82;;;31.01
48894;BMP280;34710;35.798;139.446;2023-05-10T03:53:57;100254.37;;;30.54
48894;BMP280;34710;35.798;139.446;2023-05-10T03:56:22;100246.15;;;30.72
48894;BMP280;34710;35.798;139.446;2023-05-10T03:58:48;100238.74;;;30.90
48894;BMP280;34710;35.798;139.446;2023-05-10T04:01:14;100232.03;;;29.60
48894;BMP280;34710;35.798;139.446;2023-05-10T04:03:39;100232.18;;;30.16
48894;BMP280;34710;35.798;139.446;2023-05-10T04:06:05;100230.42;;;29.67
48894;BMP280;34710;35.798;139.446;2023-05-10T04:08:30;100225.56;;;29.73
48894;BMP280;34710;35.798;139.446;2023-05-10T04:10:55;100226.83;;;29.94
48894;BMP280;34710;35.798;139.446;2023-05-10T04:13:21;100221.91;;;30.18
48894;BMP280;34710;35.798;139.446;2023-05-10T04:15:46;100217.71;;;30.23
48894;BMP280;34710;35.798;139.446;2023-05-10T04:18:12;100211.06;;;30.63
48894;BMP280;34710;35.798;139.446;2023-05-10T04:20:37;100208.36;;;31.24
48894;BMP280;34710;35.798;139.446;2023-05-10T04:23:02;100202.00;;;31.71
48894;BMP280;34710;35.798;139.446;2023-05-10T04:25:27;100199.44;;;31.98
48894;BMP280;34710;35.798;139.446;2023-05-10T04:27:53;100202.26;;;29.67
48894;BMP280;34710;35.798;139.446;2023-05-10T04:30:19;100199.27;;;28.17
48894;BMP280;34710;35.798;139.446;2023-05-10T04:32:44;100197.36;;;28.17
48894;BMP280;34710;35.798;139.446;2023-05-10T04:35:10;100195.25;;;28.78
48894;BMP280;34710;35.798;139.446;2023-05-10T04:37:34;100190.29;;;28.06
48894;BMP280;34710;35.798;139.446;2023-05-10T04:40:00;100194.10;;;29.08
48894;BMP280;34710;35.798;139.446;2023-05-10T04:42:26;100193.86;;;28.35
48894;BMP280;34710;35.798;139.446;2023-05-10T04:44:51;100188.82;;;28.89
48894;BMP280;34710;35.798;139.446;2023-05-10T04:47:16;100185.59;;;30.26
48894;BMP280;34710;35.798;139.446;2023-05-10T04:49:42;100179.60;;;29.86
48894;BMP280;34710;35.798;139.446;2023-05-10T04:52:07;100174.72;;;30.74
48894;BMP280;34710;35.798;139.446;2023-05-10T04:54:33;100175.03;;;31.06
48894;BMP280;34710;35.798;139.446;2023-05-10T04:56:59;100174.38;;;30.39
48894;BMP280;34710;35.798;139.446;2023-05-10T04:59:23;100167.54;;;31.62
48894;BMP280;34710;35.798;139.446;2023-05-10T05:01:49;100164.15;;;31.65
48894;BMP280;34710;35.798;139.446;2023-05-10T05:04:14;100169.23;;;30.34
48894;BMP280;34710;35.798;139.446;2023-05-10T05:06:39;100168.52;;;30.23
48894;BMP280;34710;35.798;139.446;2023-05-10T05:09:05;100168.12;;;31.93
48894;BMP280;34710;35.798;139.446;2023-05-10T05:11:30;100168.34;;;30.66
48894;BMP280;34710;35.798;139.446;2023-05-10T05:13:55;100169.35;;;28.97
48894;BMP280;34710;35.798;139.446;2023-05-10T05:16:22;100164.61;;;31.16
48894;BMP280;34710;35.798;139.446;2023-05-10T05:18:47;100167.46;;;29.91
48894;BMP280;34710;35.798;139.446;2023-05-10T05:21:15;100163.81;;;28.22
48894;BMP280;34710;35.798;139.446;2023-05-10T05:23:38;100166.24;;;27.70
48894;BMP280;34710;35.798;139.446;2023-05-10T05:26:03;100163.02;;;29.17
48894;BMP280;34710;35.798;139.446;2023-05-10T05:28:28;100160.59;;;29.15
48894;BMP280;34710;35.798;139.446;2023-05-10T05:30:54;100156.28;;;29.89
48894;BMP280;34710;35.798;139.446;2023-05-10T05:33:18;100153.91;;;31.57
48894;BMP280;34710;35.798;139.446;2023-05-10T05:35:43;100147.01;;;31.32
48894;BMP280;34710;35.798;139.446;2023-05-10T05:38:09;100147.67;;;31.78
48894;BMP280;34710;35.798;139.446;2023-05-10T05:40:34;100148.96;;;30.88
48894;BMP280;34710;35.798;139.446;2023-05-10T05:42:59;100152.97;;;31.94
48894;BMP280;34710;35.798;139.446;2023-05-10T05:45:25;100148.39;;;32.37
48894;BMP280;34710;35.798;139.446;2023-05-10T05:47:50;100148.55;;;32.50
48894;BMP280;34710;35.798;139.446;2023-05-10T05:50:15;100146.97;;;32.21
48894;BMP280;34710;35.798;139.446;2023-05-10T05:52:41;100149.26;;;31.99
48894;BMP280;34710;35.798;139.446;2023-05-10T05:55:06;100140.74;;;30.90
48894;BMP280;34710;35.798;139.446;2023-05-10T05:57:31;100139.92;;;27.55
48894;BMP280;34710;35.798;139.446;2023-05-10T05:59:57;100139.79;;;28.77
48894;BMP280;34710;35.798;139.446;2023-05-10T06:02:22;100139.42;;;29.09
48894;BMP280;34710;35.798;139.446;2023-05-10T06:04:48;100136.00;;;27.87
48894;BMP280;34710;35.798;139.446;2023-05-10T06:07:13;100137.62;;;27.46
48894;BMP280;34710;35.798;139.446;2023-05-10T06:09:39;100140.74;;;27.64
48894;BMP280;34710;35.798;139.446;2023-05-10T06:12:05;100142.71;;;27.67
48894;BMP280;34710;35.798;139.446;2023-05-10T06:14:30;100143.31;;;26.41
48894;BMP280;34710;35.798;139.446;2023-05-10T06:16:56;100152.62;;;25.66
48894;BMP280;34710;35.798;139.446;2023-05-10T06:19:21;100154.16;;;25.76
48894;BMP280;34710;35.798;139.446;2023-05-10T06:21:47;100150.26;;;26.88
48894;BMP280;34710;35.798;139.446;2023-05-10T06:24:12;100154.55;;;25.25
48894;BMP280;34710;35.798;139.446;2023-05-10T06:26:37;100159.17;;;24.41
48894;BMP280;34710;35.798;139.446;2023-05-10T06:29:04;100158.34;;;25.02
48894;BMP280;34710;35.798;139.446;2023-05-10T06:31:29;100161.68;;;23.93
48894;BMP280;34710;35.798;139.446;2023-05-10T06:33:55;100163.06;;;23.34
48894;BMP280;34710;35.798;139.446;2023-05-10T06:36:20;100168.76;;;24.27
48894;BMP280;34710;35.798;139.446;2023-05-10T06:38:46;100176.69;;;23.73
48894;BMP280;34710;35.798;139.446;2023-05-10T06:41:11;100173.63;;;22.91
48894;BMP280;34710;35.798;139.446;2023-05-10T06:43:37;100177.41;;;24.46
48894;BMP280;34710;35.798;139.446;2023-05-10T06:46:02;100178.81;;;24.41
48894;BMP280;34710;35.798;139.446;2023-05-10T06:48:28;100184.12;;;24.52
48894;BMP280;34710;35.798;139.446;2023-05-10T06:50:53;100185.22;;;24.94
48894;BMP280;34710;35.798;139.446;2023-05-10T06:53:19;100183.16;;;25.20
48894;BMP280;34710;35.798;139.446;2023-05-10T06:55:44;100180.81;;;24.40
48894;BMP280;34710;35.798;139.446;2023-05-10T06:58:09;100181.98;;;23.93
48894;BMP280;34710;35.798;139.446;2023-05-10T07:00:35;100187.51;;;24.90
48894;BMP280;34710;35.798;139.446;2023-05-10T07:03:01;100184.95;;;23.57
48894;BMP280;34710;35.798;139.446;2023-05-10T07:05:26;100188.51;;;23.42
48894;BMP280;34710;35.798;139.446;2023-05-10T07:07:52;100195.95;;;22.89
48894;BMP280;34710;35.798;139.446;2023-05-10T07:10:17;100188.29;;;22.72
48894;BMP280;34710;35.798;139.446;2023-05-10T07:12:42;100191.37;;;24.35
48894;BMP280;34710;35.798;139.446;2023-05-10T07:15:08;100189.46;;;23.89
48894;BMP280;34710;35.798;139.446;2023-05-10T07:17:32;100192.32;;;23.57
48894;BMP280;34710;35.798;139.446;2023-05-10T07:19:58;100192.04;;;24.15
48894;BMP280;34710;35.798;139.446;2023-05-10T07:22:23;100189.64;;;24.12
48894;BMP280;34710;35.798;139.446;2023-05-10T07:24:49;100193.99;;;23.24
48894;BMP280;34710;35.798;139.446;2023-05-10T07:27:14;100197.35;;;24.51
48894;BMP280;34710;35.798;139.446;2023-05-10T07:29:39;100199.84;;;22.54
48894;BMP280;34710;35.798;139.446;2023-05-10T07:32:05;100197.69;;;22.35
48894;BMP280;34710;35.798;139.446;2023-05-10T07:34:30;100197.20;;;22.67
48894;BMP280;34710;35.798;139.446;2023-05-10T07:36:56;100199.61;;;23.04
48894;BMP280;34710;35.798;139.446;2023-05-10T07:39:21;100201.51;;;23.32
48894;BMP280;34710;35.798;139.446;2023-05-10T07:41:46;100208.05;;;22.50
48894;BMP280;34710;35.798;139.446;2023-05-10T07:44:11;100210.61;;;22.15
48894;BMP280;34710;35.798;139.446;2023-05-10T07:46:37;100212.23;;;22.65
48894;BMP280;34710;35.798;139.446;2023-05-10T07:49:03;100213.14;;;22.58
48894;BMP280;34710;35.798;139.446;2023-05-10T07:51:28;100213.44;;;22.41
48894;BMP280;34710;35.798;139.446;2023-05-10T07:53:53;100221.37;;;21.71
48894;BMP280;34710;35.798;139.446;2023-05-10T07:56:23;100220.66;;;22.70
48894;BMP280;34710;35.798;139.446;2023-05-10T07:58:44;100223.64;;;22.81
48894;BMP280;34710;35.798;139.446;2023-05-10T08:01:10;100225.86;;;22.02
48894;BMP280;34710;35.798;139.446;2023-05-10T08:03:35;100228.96;;;23.46
48894;BMP280;34710;35.798;139.446;2023-05-10T08:06:01;100231.79;;;22.63
48894;BMP280;34710;35.798;139.446;2023-05-10T08:08:26;100233.79;;;22.87
48894;BMP280;34710;35.798;139.446;2023-05-10T08:10:52;100235.95;;;22.69
48894;BMP280;34710;35.798;139.446;2023-05-10T08:13:18;100241.55;;;22.19
48894;BMP280;34710;35.798;139.446;2023-05-10T08:15:42;100240.93;;;22.68
48894;BMP280;34710;35.798;139.446;2023-05-10T08:18:08;100244.93;;;22.96
48894;BMP280;34710;35.798;139.446;2023-05-10T08:20:33;100252.61;;;21.73
48894;BMP280;34710;35.798;139.446;2023-05-10T08:22:58;100256.00;;;21.36
48894;BMP280;34710;35.798;139.446;2023-05-10T08:25:24;100253.54;;;22.23
48894;BMP280;34710;35.798;139.446;2023-05-10T08:27:50;100252.12;;;22.29
48894;BMP280;34710;35.798;139.446;2023-05-10T08:30:14;100260.64;;;22.04
48894;BMP280;34710;35.798;139.446;2023-05-10T08:32:40;100264.93;;;21.88
48894;BMP280;34710;35.798;139.446;2023-05-10T08:35:06;100266.59;;;21.37
48894;BMP280;34710;35.798;139.446;2023-05-10T08:37:31;100267.57;;;20.99
48894;BMP280;34710;35.798;139.446;2023-05-10T08:39:56;100265.98;;;22.23
48894;BMP280;34710;35.798;139.446;2023-05-10T08:42:23;100275.81;;;21.27
48894;BMP280;34710;35.798;139.446;2023-05-10T08:44:49;100272.79;;;22.29
48894;BMP280;34710;35.798;139.446;2023-05-10T08:47:12;100274.98;;;21.63
48894;BMP280;34710;35.798;139.446;2023-05-10T08:49:38;100275.58;;;21.70
48894;BMP280;34710;35.798;139.446;2023-05-10T08:52:04;100276.92;;;21.54
48894;BMP280;34710;35.798;139.446;2023-05-10T08:54:29;100282.03;;;22.01
48894;BMP280;34710;35.798;139.446;2023-05-10T08:56:54;100281.13;;;22.18
48894;BMP280;34710;35.798;139.446;2023-05-10T08:59:20;100282.63;;;22.16
48894;BMP280;34710;35.798;139.446;2023-05-10T09:01:46;100288.82;;;22.63
48894;BMP280;34710;35.798;139.446;2023-05-10T09:04:10;100288.92;;;23.01
48894;BMP280;34710;35.798;139.446;2023-05-10T09:06:36;100298.66;;;21.39
48894;BMP280;34710;35.798;139.446;2023-05-10T09:09:02;100296.82;;;22.40
48894;BMP280;34710;35.798;139.446;2023-05-10T09:11:27;100305.19;;;21.21
48894;BMP280;34710;35.798;139.446;2023-05-10T09:13:53;100311.83;;;21.76
48894;BMP280;34710;35.798;139.446;2023-05-10T09:16:18;100320.85;;;20.28
48894;BMP280;34710;35.798;139.446;2023-05-10T09:18:43;100325.40;;;19.96
48894;BMP280;34710;35.798;139.446;2023-05-10T09:21:09;100335.69;;;20.20
48894;BMP280;34710;35.798;139.446;2023-05-10T09:23:35;100335.05;;;19.77
48894;BMP280;34710;35.798;139.446;2023-05-10T09:26:04;100338.27;;;19.20
48894;BMP280;34710;35.798;139.446;2023-05-10T09:28:25;100346.92;;;21.02
48894;BMP280;34710;35.798;139.446;2023-05-10T09:30:55;100356.43;;;20.89
48894;BMP280;34710;35.798;139.446;2023-05-10T09:33:19;100360.12;;;20.81
48894;BMP280;34710;35.798;139.446;2023-05-10T09:35:42;100364.52;;;20.32
48894;BMP280;34710;35.798;139.446;2023-05-10T09:38:07;100373.24;;;20.63
48894;BMP280;34710;35.798;139.446;2023-05-10T09:40:32;100375.99;;;21.19
48894;BMP280;34710;35.798;139.446;2023-05-10T09:43:00;100381.74;;;19.87
48894;BMP280;34710;35.798;139.446;2023-05-10T09:45:24;100382.11;;;20.07
48894;BMP280;34710;35.798;139.446;2023-05-10T09:47:49;100381.74;;;19.50
48894;BMP280;34710;35.798;139.446;2023-05-10T09:50:14;100388.18;;;20.26
48894;BMP280;34710;35.798;139.446;2023-05-10T09:52:48;100390.86;;;19.20
48894;BMP280;34710;35.798;139.446;2023-05-10T09:55:06;100392.67;;;20.84
48894;BMP280;34710;35.798;139.446;2023-05-10T09:57:31;100393.10;;;21.34
48894;BMP280;34710;35.798;139.446;2023-05-10T09:59:57;100394.58;;;18.98
48894;BMP280;34710;35.798;139.446;2023-05-10T10:02:28;100399.55;;;20.13
48894;BMP280;34710;35.798;139.446;2023-05-10T10:04:50;100405.29;;;19.64
48894;BMP280;34710;35.798;139.446;2023-05-10T10:07:13;100418.20;;;19.83
48894;BMP280;34710;35.798;139.446;2023-05-10T10:09:39;100428.28;;;20.34
48894;BMP280;34710;35.798;139.446;2023-05-10T10:12:05;100436.66;;;18.79
48894;BMP280;34710;35.798;139.446;2023-05-10T10:14:30;100442.57;;;19.16
48894;BMP280;34710;35.798;139.446;2023-05-10T10:16:55;100448.52;;;19.20
48894;BMP280;34710;35.798;139.446;2023-05-10T10:19:21;100443.81;;;19.10
48894;BMP280;34710;35.798;139.446;2023-05-10T10:21:46;100446.31;;;19.68
48894;BMP280;34710;35.798;139.446;2023-05-10T10:24:12;100453.09;;;18.55
48894;BMP280;34710;35.798;139.446;2023-05-10T10:26:38;100456.87;;;18.98
48894;BMP280;34710;35.798;139.446;2023-05-10T10:29:12;100464.10;;;19.55
48894;BMP280;34710;35.798;139.446;2023-05-10T10:31:36;100467.30;;;18.98
48894;BMP280;34710;35.798;139.446;2023-05-10T10:34:01;100475.86;;;18.61
48894;BMP280;34710;35.798;139.446;2023-05-10T10:36:20;100480.87;;;18.18
48894;BMP280;34710;35.798;139.446;2023-05-10T10:38:55;100484.44;;;18.61
48894;BMP280;34710;35.798;139.446;2023-05-10T10:41:27;100495.94;;;17.93
48894;BMP280;34710;35.798;139.446;2023-05-10T10:43:36;100501.98;;;17.88
48894;BMP280;34710;35.798;139.446;2023-05-10T10:46:11;100503.77;;;17.83
48894;BMP280;34710;35.798;139.446;2023-05-10T10:48:27;100499.60;;;19.69
48894;BMP280;34710;35.798;139.446;2023-05-10T10:50:57;100502.47;;;18.33
48894;BMP280;34710;35.798;139.446;2023-05-10T10:53:18;100509.15;;;17.75
48894;BMP280;34710;35.798;139.446;2023-05-10T10:55:49;100513.23;;;17.51
48894;BMP280;34710;35.798;139.446;2023-05-10T10:58:09;100516.88;;;16.52
48894;BMP280;34710;35.798;139.446;2023-05-10T11:00:37;100515.95;;;17.18
48894;BMP280;34710;35.798;139.446;2023-05-10T11:03:03;100520.37;;;17.78
48894;BMP280;34710;35.798;139.446;2023-05-10T11:07:55;100527.83;;;18.97
48894;BMP280;34710;35.798;139.446;2023-05-10T11:10:20;100526.86;;;19.18
48894;BMP280;34710;35.798;139.446;2023-05-10T11:15:10;100528.46;;;19.55
48894;BMP280;34710;35.798;139.446;2023-05-10T11:17:36;100534.05;;;19.66
48894;BMP280;34710;35.798;139.446;2023-05-10T11:20:09;100535.12;;;20.62
48894;BMP280;34710;35.798;139.446;2023-05-10T11:22:26;100537.69;;;19.15
48894;BMP280;34710;35.798;139.446;2023-05-10T11:24:58;100546.82;;;18.41
48894;BMP280;34710;35.798;139.446;2023-05-10T11:27:14;100554.90;;;17.21
48894;BMP280;34710;35.798;139.446;2023-05-10T11:29:40;100556.69;;;19.11
48894;BMP280;34710;35.798;139.446;2023-05-10T11:32:06;100554.36;;;19.03
48894;BMP280;34710;35.798;139.446;2023-05-10T11:34:32;100551.84;;;19.31
48894;BMP280;34710;35.798;139.446;2023-05-10T11:36:58;100550.05;;;19.52
48894;BMP280;34710;35.798;139.446;2023-05-10T11:39:26;100553.06;;;19.11
48894;BMP280;34710;35.798;139.446;2023-05-10T11:41:49;100558.28;;;19.57
48894;BMP280;34710;35.798;139.446;2023-05-10T11:44:13;100560.49;;;20.61
48894;BMP280;34710;35.798;139.446;2023-05-10T11:46:39;100566.31;;;20.50
48894;BMP280;34710;35.798;139.446;2023-05-10T11:49:04;100567.85;;;19.94
48894;BMP280;34710;35.798;139.446;2023-05-10T11:51:32;100567.59;;;19.62
48894;BMP280;34710;35.798;139.446;2023-05-10T11:53:56;100569.70;;;18.28
48894;BMP280;34710;35.798;139.446;2023-05-10T11:56:22;100568.02;;;17.72
48894;BMP280;34710;35.798;139.446;2023-05-10T11:58:53;100570.88;;;19.12
48894;BMP280;34710;35.798;139.446;2023-05-10T12:01:13;100576.46;;;19.77
48894;BMP280;34710;35.798;139.446;2023-05-10T12:03:39;100581.86;;;19.71
48894;BMP280;34710;35.798;139.446;2023-05-10T12:06:04;100586.25;;;20.27
48894;BMP280;34710;35.798;139.446;2023-05-10T12:08:29;100590.30;;;20.44
48894;BMP280;34710;35.798;139.446;2023-05-10T12:11:05;100592.91;;;20.33
48894;BMP280;34710;35.798;139.446;2023-05-10T12:13:20;100592.30;;;20.06
48894;BMP280;34710;35.798;139.446;2023-05-10T12:15:45;100593.98;;;19.72
48894;BMP280;34710;35.798;139.446;2023-05-10T12:18:12;100594.34;;;19.31
48894;BMP280;34710;35.798;139.446;2023-05-10T12:20:36;100594.71;;;19.67
48894;BMP280;34710;35.798;139.446;2023-05-10T12:23:03;100597.78;;;18.48
48894;BMP280;34710;35.798;139.446;2023-05-10T12:25:31;100599.11;;;19.24
48894;BMP280;34710;35.798;139.446;2023-05-10T12:27:54;100599.84;;;19.71
48894;BMP280;34710;35.798;139.446;2023-05-10T12:30:22;100608.22;;;20.50
48894;BMP280;34710;35.798;139.446;2023-05-10T12:32:45;100615.44;;;19.60
48894;BMP280;34710;35.798;139.446;2023-05-10T12:35:10;100615.62;;;20.66
48894;BMP280;34710;35.798;139.446;2023-05-10T12:37:35;100617.99;;;21.12
48894;BMP280;34710;35.798;139.446;2023-05-10T12:40:01;100623.16;;;20.75
48894;BMP280;34710;35.798;139.446;2023-05-10T12:42:26;100630.22;;;19.83
48894;BMP280;34710;35.798;139.446;2023-05-10T12:44:56;100637.47;;;20.05
48894;BMP280;34710;35.798;139.446;2023-05-10T12:47:17;100640.82;;;20.01
48894;BMP280;34710;35.798;139.446;2023-05-10T12:49:43;100646.59;;;18.47
48894;BMP280;34710;35.798;139.446;2023-05-10T12:52:08;100645.73;;;17.67
48894;BMP280;34710;35.798;139.446;2023-05-10T12:54:34;100645.57;;;18.18
48894;BMP280;34710;35.798;139.446;2023-05-10T12:56:59;100643.15;;;19.13
48894;BMP280;34710;35.798;139.446;2023-05-10T12:59:25;100642.25;;;19.68
48894;BMP280;34710;35.798;139.446;2023-05-10T13:01:50;100649.11;;;19.44
48894;BMP280;34710;35.798;139.446;2023-05-10T13:04:15;100649.21;;;20.32
48894;BMP280;34710;35.798;139.446;2023-05-10T13:06:41;100654.46;;;20.54
48894;BMP280;34710;35.798;139.446;2023-05-10T13:09:06;100657.45;;;20.56
48894;BMP280;34710;35.798;139.446;2023-05-10T13:11:32;100657.06;;;20.81
48894;BMP280;34710;35.798;139.446;2023-05-10T13:13:57;100656.30;;;21.34
48894;BMP280;34710;35.798;139.446;2023-05-10T13:16:22;100651.57;;;20.81
48894;BMP280;34710;35.798;139.446;2023-05-10T13:18:48;100655.37;;;21.16
48894;BMP280;34710;35.798;139.446;2023-05-10T13:21:13;100656.41;;;20.78
48894;BMP280;34710;35.798;139.446;2023-05-10T13:23:39;100658.66;;;21.13
48894;BMP280;34710;35.798;139.446;2023-05-10T13:26:04;100660.36;;;21.20
48894;BMP280;34710;35.798;139.446;2023-05-10T13:28:29;100661.51;;;21.25
48894;BMP280;34710;35.798;139.446;2023-05-10T13:30:54;100655.05;;;20.83
48894;BMP280;34710;35.798;139.446;2023-05-10T13:33:20;100658.05;;;20.89